Weather History for Clinton, MO

Change the Weather History Date:

Friday, February 21, 2014

  Actual Average (KSZL) Record (KSZL)
Temperature  
Mean Temperature 44 °F -  
Max Temperature 59 °F 44 °F 64 °F (2000)
Min Temperature 30 °F 28 °F 15 °F (2006)
Degree Days  
Heating Degree Days 20    
Moisture  
Dew Point 22 °F    
Average Humidity 45    
Maximum Humidity 80    
Minimum Humidity 21    
Precipitation  
Precipitation 0.00 in - - ()
Sea Level Pressure  
Sea Level Pressure 29.91 in    
Wind  
Wind Speed 13 mph (SW)    
Max Wind Speed 28 mph    
Max Gust Speed 36 mph    
Visibility 10 miles    
Events      
Averages and records for this station are not official NWS values.
T = Trace of Precipitation, MM = Missing Value Source: NWS Daily Summary

Daily Weather History Graph

Daily Weather History Graph

Search for Another Location

Airport:

Trip Planner

Search our weather history database for the weather conditions in past years. The results will help you decide how hot, cold, wet, or windy it might be!

Date:

Astronomy

Feb. 21, 2014 Rise Set
Actual Time 6:57 AM CST 5:59 PM CST
Civil Twilight 6:30 AM CST 6:26 PM CST
Nautical Twilight 6:00 AM CST 6:57 PM CST
Astronomical Twilight 5:29 AM CST 7:27 PM CST
Moon No Moon Rise 10:27 AM CST (2/21)
Length of Visible Light 11h 55m
Length of Day
11h 01m
Waning Gibbous, 60% of the Moon is Illuminated
Feb 21
Waning Gibbous
Feb 22
Last Quarter
Mar 1
New
Mar 8
First Quarter
Mar 16
Full

Hourly Weather History & Observations

Time (CST) Temp. Windchill Dew Point Humidity Pressure Visibility Wind Dir Wind Speed Gust Speed Precip Events Conditions
12:15 AM 37.4 °F 28.9 °F 26.6 °F 65% 29.83 in 10.0 mi West 13.8 mph 21.9 mph N/A   Clear
12:35 AM 37.4 °F 28.2 °F 26.6 °F 65% 29.83 in 10.0 mi West 16.1 mph 24.2 mph N/A   Clear
12:55 AM 37.4 °F 27.8 °F 24.8 °F 60% 29.84 in 10.0 mi West 17.3 mph 24.2 mph N/A   Clear
1:15 AM 37.4 °F 26.4 °F 19.4 °F 48% 29.85 in 10.0 mi West 23.0 mph 29.9 mph N/A   Clear
1:35 AM 37.4 °F 26.6 °F 17.6 °F 45% 29.87 in 10.0 mi West 21.9 mph 28.8 mph N/A   Clear
1:55 AM 37.4 °F 27.2 °F 15.8 °F 41% 29.88 in 10.0 mi West 19.6 mph 32.2 mph N/A   Clear
2:15 AM 37.4 °F 27.2 °F 15.8 °F 41% 29.89 in 10.0 mi West 19.6 mph 27.6 mph N/A   Clear
2:35 AM 37.4 °F 27.8 °F 14.0 °F 38% 29.90 in 10.0 mi West 17.3 mph 23.0 mph N/A   Clear
2:55 AM 35.6 °F 27.5 °F 15.8 °F 44% 29.91 in 10.0 mi West 11.5 mph - N/A   Clear
3:15 AM 33.8 °F 25.8 °F 17.6 °F 52% 29.92 in 10.0 mi WSW 10.4 mph - N/A   Clear
3:35 AM 33.8 °F 26.4 °F 19.4 °F 56% 29.92 in 10.0 mi West 9.2 mph - N/A   Clear
3:55 AM 33.8 °F 25.8 °F 19.4 °F 56% 29.93 in 10.0 mi WSW 10.4 mph - N/A   Clear
4:15 AM 33.8 °F 25.8 °F 19.4 °F 56% 29.93 in 10.0 mi WSW 10.4 mph 16.1 mph N/A   Clear
4:35 AM 32.0 °F 25.6 °F 21.2 °F 64% 29.94 in 10.0 mi SW 6.9 mph - N/A   Clear
4:55 AM 32.0 °F 24.8 °F 21.2 °F 64% 29.95 in 10.0 mi SW 8.1 mph - N/A   Clear
5:15 AM 32.0 °F 26.4 °F 23.0 °F 69% 29.95 in 10.0 mi SW 5.8 mph - N/A   Clear
5:35 AM 32.0 °F 26.4 °F 23.0 °F 69% 29.95 in 10.0 mi SSW 5.8 mph - N/A   Clear
5:55 AM 30.2 °F 23.4 °F 23.0 °F 75% 29.95 in 10.0 mi SSW 6.9 mph - N/A   Clear
6:15 AM 30.2 °F 23.4 °F 23.0 °F 75% 29.96 in 10.0 mi SW 6.9 mph - N/A   Clear
6:35 AM 30.2 °F 22.6 °F 24.8 °F 80% 29.96 in 10.0 mi SW 8.1 mph - N/A   Clear
6:55 AM 32.0 °F 24.2 °F 24.8 °F 75% 29.96 in 10.0 mi SW 9.2 mph - N/A   Clear
7:15 AM 32.0 °F 25.6 °F 24.8 °F 75% 29.96 in 10.0 mi WSW 6.9 mph - N/A   Clear
7:35 AM 32.0 °F 26.4 °F 26.6 °F 80% 29.96 in 10.0 mi SW 5.8 mph - N/A   Clear
7:55 AM 32.0 °F 26.4 °F 26.6 °F 80% 29.97 in 10.0 mi SW 5.8 mph - N/A   Clear
8:15 AM 33.8 °F 27.0 °F 26.6 °F 75% 29.98 in 10.0 mi SW 8.1 mph - N/A   Clear
8:35 AM 35.6 °F 28.6 °F 26.6 °F 70% 29.98 in 10.0 mi SW 9.2 mph - N/A   Clear
8:55 AM 37.4 °F 30.8 °F 26.6 °F 65% 29.98 in 10.0 mi SW 9.2 mph - N/A   Clear
9:15 AM 37.4 °F 31.4 °F 24.8 °F 60% 29.97 in 10.0 mi SW 8.1 mph - N/A   Clear
9:35 AM 39.2 °F 33.0 °F 24.8 °F 56% 29.97 in 10.0 mi SSW 9.2 mph - N/A   Clear
9:55 AM 42.8 °F 37.5 °F 24.8 °F 49% 29.97 in 10.0 mi SSW 9.2 mph - N/A   Clear
10:15 AM 42.8 °F 38.0 °F 23.0 °F 46% 29.97 in 10.0 mi SSW 8.1 mph - N/A   Clear
10:35 AM 44.6 °F 40.2 °F 23.0 °F 43% 29.97 in 10.0 mi SSW 8.1 mph - N/A   Clear
10:55 AM 46.4 °F 40.7 °F 21.2 °F 37% 29.96 in 10.0 mi SW 12.7 mph 16.1 mph N/A   Clear
11:15 AM 48.2 °F - 19.4 °F 32% 29.96 in 10.0 mi SSW 10.4 mph - N/A   Clear
11:35 AM 50.0 °F - 19.4 °F 30% 29.95 in 10.0 mi SSW 13.8 mph 18.4 mph N/A   Clear
11:55 AM 51.8 °F - 21.2 °F 30% 29.94 in 10.0 mi SW 15.0 mph 21.9 mph N/A   Clear
12:15 PM 51.8 °F - 21.2 °F 30% 29.93 in 10.0 mi SW 19.6 mph 27.6 mph N/A   Clear
12:35 PM 53.6 °F - 21.2 °F 28% 29.91 in 10.0 mi SW 18.4 mph 25.3 mph N/A   Clear
12:55 PM 55.4 °F - 21.2 °F 26% 29.89 in 10.0 mi SSW 19.6 mph 25.3 mph N/A   Clear
1:15 PM 55.4 °F - 19.4 °F 25% 29.88 in 10.0 mi SW 18.4 mph 26.5 mph N/A   Clear
1:35 PM 55.4 °F - 21.2 °F 26% 29.87 in 10.0 mi SSW 21.9 mph 27.6 mph N/A   Clear
1:55 PM 57.2 °F - 19.4 °F 23% 29.86 in 10.0 mi SW 23.0 mph 31.1 mph N/A   Clear
2:15 PM 57.2 °F - 17.6 °F 21% 29.86 in 10.0 mi SW 21.9 mph 31.1 mph N/A   Clear
2:35 PM 57.2 °F - 17.6 °F 21% 29.85 in 10.0 mi SW 23.0 mph 32.2 mph N/A   Clear
2:55 PM 57.2 °F - 17.6 °F 21% 29.84 in 10.0 mi SW 25.3 mph 35.7 mph N/A   Clear
3:15 PM 57.2 °F - 17.6 °F 21% 29.84 in 10.0 mi WSW 27.6 mph 34.5 mph N/A   Clear
3:35 PM 59.0 °F - 19.4 °F 22% 29.84 in 10.0 mi SW 23.0 mph 32.2 mph N/A   Clear
3:55 PM 59.0 °F - 19.4 °F 22% 29.84 in 10.0 mi SW 24.2 mph 29.9 mph N/A   Clear
4:15 PM 59.0 °F - 19.4 °F 22% 29.83 in 10.0 mi SSW 21.9 mph 28.8 mph N/A   Clear
4:35 PM 59.0 °F - 19.4 °F 22% 29.83 in 10.0 mi SW 24.2 mph 32.2 mph N/A   Clear
4:55 PM 57.2 °F - 19.4 °F 23% 29.84 in 10.0 mi SW 24.2 mph 34.5 mph N/A   Clear
5:15 PM 57.2 °F - 21.2 °F 25% 29.84 in 10.0 mi SW 17.3 mph 27.6 mph N/A   Clear
5:35 PM 55.4 °F - 21.2 °F 26% 29.85 in 10.0 mi SW 19.6 mph 26.5 mph N/A   Clear
5:55 PM 55.4 °F - 21.2 °F 26% 29.86 in 10.0 mi WSW 16.1 mph 23.0 mph N/A   Clear
6:15 PM 53.6 °F - 21.2 °F 28% 29.87 in 10.0 mi SW 11.5 mph 16.1 mph N/A   Clear
6:35 PM 51.8 °F - 21.2 °F 30% 29.87 in 10.0 mi SW 10.4 mph - N/A   Clear
6:55 PM 51.8 °F - 21.2 °F 30% 29.88 in 10.0 mi SW 9.2 mph - N/A   Clear
7:15 PM 51.8 °F - 21.2 °F 30% 29.88 in 10.0 mi SW 9.2 mph - N/A   Clear
7:35 PM 51.8 °F - 21.2 °F 30% 29.89 in 10.0 mi SW 8.1 mph - N/A   Clear
7:55 PM 50.0 °F - 21.2 °F 32% 29.90 in 10.0 mi SW 9.2 mph - N/A   Clear
8:15 PM 48.2 °F - 23.0 °F 37% 29.90 in 10.0 mi SW 8.1 mph - N/A   Clear
8:35 PM 48.2 °F - 23.0 °F 37% 29.91 in 10.0 mi SW 8.1 mph - N/A   Clear
8:55 PM 44.6 °F 40.2 °F 24.8 °F 46% 29.93 in 10.0 mi WNW 8.1 mph - N/A   Clear
9:15 PM 46.4 °F 42.4 °F 23.0 °F 40% 29.93 in 10.0 mi WSW 8.1 mph - N/A   Clear
9:35 PM 44.6 °F 41.4 °F 23.0 °F 43% 29.94 in 10.0 mi WSW 5.8 mph - N/A   Clear
9:55 PM 44.6 °F - 21.2 °F 39% 29.94 in 10.0 mi Calm Calm - N/A   Clear
10:15 PM 42.8 °F - 23.0 °F 46% 29.94 in 10.0 mi Calm Calm - N/A   Clear
10:35 PM 42.8 °F - 23.0 °F 46% 29.94 in 10.0 mi Calm Calm - N/A   Clear
10:55 PM 41.0 °F - 23.0 °F 49% 29.94 in 10.0 mi Calm Calm - N/A   Clear
11:15 PM 37.4 °F - 23.0 °F 56% 29.94 in 10.0 mi Calm Calm - N/A   Clear
11:35 PM 35.6 °F - 23.0 °F 60% 29.94 in 10.0 mi Calm Calm - N/A   Clear
11:55 PM 33.8 °F - 24.8 °F 70% 29.94 in 10.0 mi Calm Calm - N/A   Clear